Greenvale Airport


Codes: YGNV/GVP
Name: Greenvale Airport
City:
Country: Australia
Elevation: 0 ft.

Photos at Greenvale Airport


   Photos courtesy of SpottingLog. You can add your own sightings and photos by signing up for a free trial today.



No photos found.

Weather at Greenvale Airport


Time (UTC)DescriptionTempratureWindCloud coverageVisibilityPressureHumidity
13-Jun-2024 03:00Few Clouds23°C11 mph, SE24%10000m1017hPa28%
13-Jun-2024 06:00Few Clouds25°C9 mph, SE13%10000m1015hPa26%
13-Jun-2024 09:00Clear Sky19°C7 mph, SE0%10000m1016hPa38%
13-Jun-2024 12:00Clear Sky14°C4 mph, E0%10000m1018hPa66%
13-Jun-2024 15:00Clear Sky12°C2 mph, E0%10000m1018hPa83%
13-Jun-2024 18:00Clear Sky11°C2 mph, E0%10000m1017hPa88%
13-Jun-2024 21:00Clear Sky10°C2 mph, E0%10000m1018hPa93%
14-Jun-2024 00:00Clear Sky20°C7 mph, E1%10000m1018hPa63%
14-Jun-2024 03:00Clear Sky26°C7 mph, E0%10000m1015hPa33%
14-Jun-2024 06:00Clear Sky27°C7 mph, SE0%10000m1013hPa28%
14-Jun-2024 09:00Clear Sky19°C7 mph, E0%10000m1015hPa57%
14-Jun-2024 12:00Clear Sky14°C4 mph, NE0%10000m1017hPa90%
14-Jun-2024 15:00Clear Sky12°C2 mph, E0%10000m1016hPa93%
14-Jun-2024 18:00Clear Sky12°C2 mph, E0%10000m1016hPa93%
14-Jun-2024 21:00Clear Sky11°C0 mph, N0%10000m1018hPa93%
15-Jun-2024 00:00Clear Sky21°C2 mph, E0%10000m1018hPa53%
15-Jun-2024 03:00Clear Sky27°C4 mph, S0%10000m1014hPa30%
15-Jun-2024 06:00Clear Sky29°C4 mph, S0%10000m1012hPa22%
15-Jun-2024 09:00Clear Sky21°C4 mph, SE0%10000m1013hPa35%
15-Jun-2024 12:00Clear Sky16°C4 mph, S0%10000m1016hPa39%
15-Jun-2024 15:00Clear Sky14°C4 mph, S0%10000m1016hPa40%
15-Jun-2024 18:00Clear Sky12°C4 mph, S0%10000m1016hPa43%
15-Jun-2024 21:00Clear Sky11°C2 mph, S0%10000m1018hPa47%
16-Jun-2024 00:00Clear Sky21°C7 mph, SE0%10000m1018hPa28%
16-Jun-2024 03:00Clear Sky26°C4 mph, SE0%10000m1015hPa21%
16-Jun-2024 06:00Clear Sky27°C4 mph, SE0%10000m1013hPa18%
16-Jun-2024 09:00Clear Sky18°C7 mph, SE0%10000m1016hPa32%
16-Jun-2024 12:00Clear Sky15°C4 mph, SE0%10000m1018hPa41%
16-Jun-2024 15:00Clear Sky13°C4 mph, S0%10000m1018hPa45%
16-Jun-2024 18:00Clear Sky11°C4 mph, SE0%10000m1018hPa50%
16-Jun-2024 21:00Clear Sky10°C4 mph, SE0%10000m1020hPa55%
17-Jun-2024 00:00Clear Sky19°C9 mph, SE0%10000m1020hPa31%
17-Jun-2024 03:00Clear Sky24°C9 mph, SE0%10000m1016hPa21%
17-Jun-2024 06:00Clear Sky25°C9 mph, SE0%10000m1015hPa19%
17-Jun-2024 09:00Clear Sky17°C9 mph, SE0%10000m1017hPa34%
17-Jun-2024 12:00Clear Sky13°C4 mph, SE0%10000m1019hPa42%
17-Jun-2024 15:00Clear Sky11°C4 mph, SE0%10000m1019hPa52%
17-Jun-2024 18:00Clear Sky10°C4 mph, SE0%10000m1019hPa57%
17-Jun-2024 21:00Clear Sky9°C4 mph, SE0%10000m1020hPa66%
18-Jun-2024 00:00Clear Sky18°C7 mph, E0%10000m1020hPa50%